createdAt,value
2017-07-07T00:00:53.832Z,0
2017-07-07T00:02:09.302Z,0
2017-07-07T00:03:24.816Z,0
2017-07-07T00:04:40.533Z,0
2017-07-07T00:06:27.085Z,0
2017-07-07T00:07:41.318Z,0
2017-07-07T00:08:56.886Z,0
2017-07-07T00:10:11.259Z,0
2017-07-07T00:11:26.506Z,0
2017-07-07T00:12:41.982Z,0
2017-07-07T00:13:57.431Z,0
2017-07-07T00:15:13.081Z,0
2017-07-07T00:16:28.524Z,0
2017-07-07T00:17:42.657Z,0
2017-07-07T00:18:58.198Z,0
2017-07-07T00:20:13.926Z,0
2017-07-07T00:21:29.364Z,0
2017-07-07T00:22:44.863Z,0
2017-07-07T00:24:00.308Z,0
2017-07-07T00:25:16.067Z,0
2017-07-07T00:26:31.490Z,0
2017-07-07T00:27:47.289Z,0
2017-07-07T00:29:01.458Z,0
2017-07-07T00:30:17.234Z,0
2017-07-07T00:31:46.285Z,0
2017-07-07T00:33:01.757Z,0
2017-07-07T00:34:17.434Z,0
2017-07-07T00:35:33.155Z,0
2017-07-07T00:36:48.571Z,0
2017-07-07T00:38:04.009Z,0
2017-07-07T00:39:19.494Z,0
2017-07-07T00:40:35.212Z,0
2017-07-07T00:41:50.878Z,0
2017-07-07T00:43:06.287Z,0
2017-07-07T00:44:20.526Z,0
2017-07-07T00:45:36.283Z,0
2017-07-07T00:46:51.727Z,0
2017-07-07T00:48:07.158Z,0
2017-07-07T00:49:22.604Z,0
2017-07-07T00:50:38.220Z,0
2017-07-07T00:51:52.236Z,0
2017-07-07T00:53:07.674Z,0
2017-07-07T00:54:23.067Z,0
2017-07-07T00:55:37.435Z,0
2017-07-07T00:56:53.158Z,0
2017-07-07T00:58:07.300Z,0
2017-07-07T00:59:21.295Z,0
2017-07-07T01:00:36.998Z,0
2017-07-07T01:01:52.450Z,0
2017-07-07T01:03:07.859Z,0
2017-07-07T01:04:23.513Z,0
2017-07-07T01:05:39.223Z,0
2017-07-07T01:06:54.838Z,0
2017-07-07T01:08:10.259Z,0
2017-07-07T01:09:25.708Z,0
2017-07-07T01:10:41.404Z,0
2017-07-07T01:11:56.960Z,0
2017-07-07T01:13:11.318Z,0
2017-07-07T01:14:26.949Z,0
2017-07-07T01:15:42.924Z,0
2017-07-07T01:16:58.369Z,0
2017-07-07T01:18:13.791Z,0
2017-07-07T01:19:29.215Z,0
2017-07-07T01:20:44.938Z,0
2017-07-07T01:21:58.965Z,0
2017-07-07T01:23:14.569Z,0
2017-07-07T01:24:30.025Z,0
2017-07-07T01:25:45.698Z,0
2017-07-07T01:27:01.357Z,0
2017-07-07T01:28:16.976Z,0
2017-07-07T01:29:32.422Z,0
2017-07-07T01:30:45.359Z,0
2017-07-07T01:32:00.804Z,0
2017-07-07T01:33:16.265Z,0
2017-07-07T01:34:31.720Z,0
2017-07-07T01:35:47.367Z,0
2017-07-07T01:37:03.072Z,0
2017-07-07T01:38:18.556Z,0
2017-07-07T01:39:34.176Z,0
2017-07-07T01:40:49.857Z,0
2017-07-07T01:42:05.506Z,0
2017-07-07T01:43:21.004Z,0
2017-07-07T01:44:36.370Z,0
2017-07-07T01:45:51.678Z,0
2017-07-07T01:47:07.119Z,0
2017-07-07T01:48:22.518Z,0
2017-07-07T01:49:37.993Z,0
2017-07-07T01:50:53.726Z,0
2017-07-07T01:52:09.155Z,0
2017-07-07T01:53:24.711Z,0
2017-07-07T01:54:40.124Z,0
2017-07-07T01:55:55.776Z,0
2017-07-07T01:57:10.148Z,0
2017-07-07T01:58:25.674Z,0
2017-07-07T01:59:41.087Z,0
2017-07-07T02:00:55.415Z,0
2017-07-07T02:02:09.456Z,0
2017-07-07T02:03:24.942Z,0
2017-07-07T02:04:40.660Z,0
2017-07-07T02:05:56.375Z,0
2017-07-07T02:07:11.845Z,0
2017-07-07T02:08:27.295Z,0
2017-07-07T02:09:42.768Z,0
2017-07-07T02:10:58.456Z,0
2017-07-07T02:12:12.561Z,0
2017-07-07T02:13:27.768Z,0
2017-07-07T02:14:43.190Z,0
2017-07-07T02:15:58.910Z,0
2017-07-07T02:17:14.311Z,0
2017-07-07T02:18:29.930Z,0
2017-07-07T02:19:45.345Z,0
2017-07-07T02:21:01.073Z,0
2017-07-07T02:22:16.477Z,0
2017-07-07T02:23:31.904Z,4
2017-07-07T02:24:47.355Z,4
2017-07-07T02:26:03.024Z,4
2017-07-07T02:27:18.451Z,0
2017-07-07T02:28:34.101Z,0
2017-07-07T02:29:49.890Z,4
2017-07-07T02:31:05.576Z,4
2017-07-07T02:32:19.651Z,4
2017-07-07T02:33:35.106Z,4
2017-07-07T02:34:50.544Z,4
2017-07-07T02:36:06.252Z,8
2017-07-07T02:37:21.702Z,4
2017-07-07T02:38:37.027Z,8
2017-07-07T02:39:52.484Z,8
2017-07-07T02:41:08.178Z,8
2017-07-07T02:42:22.291Z,12
2017-07-07T02:43:37.820Z,12
2017-07-07T02:44:52.039Z,12
2017-07-07T02:46:07.464Z,16
2017-07-07T02:47:23.248Z,20
2017-07-07T02:48:38.808Z,20
2017-07-07T02:49:54.281Z,24
2017-07-07T02:51:09.697Z,28
2017-07-07T02:52:25.478Z,32
2017-07-07T02:53:40.865Z,36
2017-07-07T02:54:56.297Z,40
2017-07-07T02:56:10.411Z,44
2017-07-07T02:57:26.011Z,48
2017-07-07T02:58:41.447Z,52
2017-07-07T02:59:56.970Z,52
2017-07-07T03:01:12.492Z,52
2017-07-07T03:02:28.186Z,48
2017-07-07T03:03:43.599Z,44
2017-07-07T03:04:58.952Z,44
2017-07-07T03:06:14.399Z,40
2017-07-07T03:07:30.090Z,44
2017-07-07T03:08:45.532Z,44
2017-07-07T03:10:00.985Z,48
2017-07-07T03:11:16.465Z,52
2017-07-07T03:12:32.186Z,56
2017-07-07T03:13:46.272Z,64
2017-07-07T03:15:01.708Z,68
2017-07-07T03:16:17.365Z,72
2017-07-07T03:17:33.400Z,76
2017-07-07T03:18:49.050Z,80
2017-07-07T03:20:04.490Z,84
2017-07-07T03:21:19.935Z,88
2017-07-07T03:22:35.622Z,88
2017-07-07T03:23:51.073Z,80
2017-07-07T03:25:06.502Z,68
2017-07-07T03:26:22.070Z,64
2017-07-07T03:27:37.770Z,60
2017-07-07T03:28:53.227Z,56
2017-07-07T03:30:08.867Z,56
2017-07-07T03:31:24.325Z,56
2017-07-07T03:32:38.625Z,60
2017-07-07T03:33:54.045Z,68
2017-07-07T03:35:09.437Z,76
2017-07-07T03:36:25.175Z,80
2017-07-07T03:37:39.513Z,92
2017-07-07T03:38:54.992Z,112
2017-07-07T03:40:09.052Z,132
2017-07-07T03:41:24.671Z,176
2017-07-07T03:42:40.367Z,224
2017-07-07T03:43:54.536Z,240
2017-07-07T03:45:08.675Z,264
2017-07-07T03:46:24.076Z,252
2017-07-07T03:47:38.477Z,224
2017-07-07T03:48:53.910Z,200
2017-07-07T03:50:09.334Z,200
2017-07-07T03:51:24.856Z,216
2017-07-07T03:52:40.527Z,216
2017-07-07T03:53:55.881Z,236
2017-07-07T03:55:08.336Z,268
2017-07-07T03:56:23.770Z,292
2017-07-07T03:57:39.601Z,288
2017-07-07T03:58:55.079Z,280
2017-07-07T04:00:09.174Z,304
2017-07-07T04:01:24.601Z,300
2017-07-07T04:02:40.340Z,292
2017-07-07T04:03:55.752Z,276
2017-07-07T04:05:11.190Z,264
2017-07-07T04:06:26.639Z,236
2017-07-07T04:07:39.612Z,204
2017-07-07T04:08:55.420Z,204
2017-07-07T04:10:10.894Z,196
2017-07-07T04:11:25.009Z,196
2017-07-07T04:12:40.668Z,204
2017-07-07T04:13:56.124Z,212
2017-07-07T04:15:11.889Z,216
2017-07-07T04:16:27.344Z,232
2017-07-07T04:17:43.068Z,264
2017-07-07T04:18:58.698Z,304
2017-07-07T04:20:12.843Z,348
2017-07-07T04:21:28.462Z,380
2017-07-07T04:22:44.142Z,404
2017-07-07T04:23:59.580Z,424
2017-07-07T04:25:15.097Z,444
2017-07-07T04:26:30.699Z,468
2017-07-07T04:27:46.335Z,504
2017-07-07T04:29:01.813Z,560
2017-07-07T04:30:17.284Z,612
2017-07-07T04:31:33.029Z,644
2017-07-07T04:32:49.029Z,660
2017-07-07T04:34:04.720Z,676
2017-07-07T04:35:20.203Z,660
2017-07-07T04:36:35.668Z,684
2017-07-07T04:38:05.554Z,756
2017-07-07T04:39:20.919Z,864
2017-07-07T04:40:35.089Z,960
2017-07-07T04:41:50.480Z,1048
2017-07-07T04:43:04.991Z,1060
2017-07-07T04:44:20.480Z,1044
2017-07-07T04:45:35.904Z,1012
2017-07-07T04:46:50.036Z,996
2017-07-07T04:48:05.844Z,1008
2017-07-07T04:49:21.196Z,1020
2017-07-07T04:50:36.613Z,1108
2017-07-07T04:51:52.193Z,1336
2017-07-07T04:53:07.888Z,1656
2017-07-07T04:54:23.358Z,2140
2017-07-07T04:55:39.119Z,2756
2017-07-07T04:56:54.582Z,3228
2017-07-07T04:58:09.902Z,3644
2017-07-07T04:59:25.501Z,4076
2017-07-07T05:00:40.926Z,4424
2017-07-07T05:01:56.383Z,4396
2017-07-07T05:03:12.124Z,4144
2017-07-07T05:04:27.840Z,4104
2017-07-07T05:05:43.307Z,3916
2017-07-07T05:06:57.452Z,3540
2017-07-07T05:08:13.267Z,3084
2017-07-07T05:09:28.895Z,2908
2017-07-07T05:10:44.587Z,2984
2017-07-07T05:11:59.983Z,3100
2017-07-07T05:13:15.693Z,3360
2017-07-07T05:14:31.170Z,3828
2017-07-07T05:15:46.602Z,4208
2017-07-07T05:17:02.006Z,4644
2017-07-07T05:18:17.709Z,4988
2017-07-07T05:19:33.128Z,5292
2017-07-07T05:20:48.654Z,5356
2017-07-07T05:22:34.878Z,4980
2017-07-07T05:23:50.596Z,4884
2017-07-07T05:25:04.733Z,4756
2017-07-07T05:26:20.145Z,4640
2017-07-07T05:27:32.852Z,4560
2017-07-07T05:28:48.551Z,4684
2017-07-07T05:30:04.161Z,5156
2017-07-07T05:31:19.572Z,5844
2017-07-07T05:32:35.034Z,6528
2017-07-07T05:33:50.770Z,6868
2017-07-07T05:35:06.213Z,6756
2017-07-07T05:36:21.690Z,6152
2017-07-07T05:37:37.122Z,5632
2017-07-07T05:38:51.478Z,5744
2017-07-07T05:40:05.568Z,5892
2017-07-07T05:41:21.008Z,6196
2017-07-07T05:42:36.423Z,6556
2017-07-07T05:43:50.847Z,6532
2017-07-07T05:45:06.348Z,6720
2017-07-07T05:46:21.814Z,7104
2017-07-07T05:47:37.306Z,7584
2017-07-07T05:48:53.023Z,8444
2017-07-07T05:50:08.513Z,8464
2017-07-07T05:51:23.759Z,9000
2017-07-07T05:52:39.259Z,9664
2017-07-07T05:53:54.940Z,10060
2017-07-07T05:55:10.420Z,10252
2017-07-07T05:56:25.845Z,10348
2017-07-07T05:57:41.384Z,9936
2017-07-07T05:58:56.992Z,9660
2017-07-07T06:00:12.703Z,9508
2017-07-07T06:01:28.406Z,9500
2017-07-07T06:02:43.811Z,9620
2017-07-07T06:03:58.101Z,9652
2017-07-07T06:05:13.581Z,9716
2017-07-07T06:06:29.009Z,9816
2017-07-07T06:07:44.466Z,9772
2017-07-07T06:09:00.383Z,10120
2017-07-07T06:10:15.863Z,9424
2017-07-07T06:11:31.318Z,8440
2017-07-07T06:12:46.777Z,8076
2017-07-07T06:14:02.726Z,8288
2017-07-07T06:15:18.213Z,7744
2017-07-07T06:16:33.724Z,8304
2017-07-07T06:17:49.175Z,9108
2017-07-07T06:19:04.993Z,9792
2017-07-07T06:20:20.488Z,10452
2017-07-07T06:21:34.601Z,10148
2017-07-07T06:22:50.065Z,8432
2017-07-07T06:24:05.766Z,6776
2017-07-07T06:25:21.208Z,5904
2017-07-07T06:26:36.763Z,5044
2017-07-07T06:27:52.180Z,4500
2017-07-07T06:29:07.879Z,4268
2017-07-07T06:30:22.434Z,4284
2017-07-07T06:31:37.901Z,4308
2017-07-07T06:32:53.008Z,4384
2017-07-07T06:34:08.990Z,4384
2017-07-07T06:35:24.667Z,4224
2017-07-07T06:36:40.305Z,4132
2017-07-07T06:37:55.801Z,4212
2017-07-07T06:39:11.458Z,4684
2017-07-07T06:40:26.894Z,5376
2017-07-07T06:41:42.372Z,5852
2017-07-07T06:42:57.816Z,6408
2017-07-07T06:44:13.504Z,7096
2017-07-07T06:45:29.033Z,7772
2017-07-07T06:46:43.162Z,8224
2017-07-07T06:47:58.756Z,8184
2017-07-07T06:49:13.146Z,7768
2017-07-07T06:50:28.602Z,7412
2017-07-07T06:51:44.081Z,7280
2017-07-07T06:52:59.495Z,7328
2017-07-07T06:54:12.173Z,7436
2017-07-07T06:55:26.506Z,7884
2017-07-07T06:56:41.943Z,7944
2017-07-07T06:57:57.412Z,7280
2017-07-07T06:59:12.823Z,6608
2017-07-07T07:00:28.556Z,6168
2017-07-07T07:01:43.953Z,5936
2017-07-07T07:02:58.114Z,5420
2017-07-07T07:04:13.581Z,4984
2017-07-07T07:05:29.334Z,4612
2017-07-07T07:06:44.772Z,4376
2017-07-07T07:08:00.311Z,4876
2017-07-07T07:09:15.786Z,5708
2017-07-07T07:10:31.511Z,6388
2017-07-07T07:11:46.975Z,6116
2017-07-07T07:13:02.383Z,5192
2017-07-07T07:14:16.430Z,4072
2017-07-07T07:15:32.155Z,3260
2017-07-07T07:16:47.681Z,2708
2017-07-07T07:18:03.144Z,2376
2017-07-07T07:19:18.188Z,2112
2017-07-07T07:20:34.019Z,1988
2017-07-07T07:21:49.439Z,1936
2017-07-07T07:23:03.186Z,1960
2017-07-07T07:24:18.648Z,2128
2017-07-07T07:25:34.378Z,2440
2017-07-07T07:26:49.847Z,2608
2017-07-07T07:28:05.310Z,2796
2017-07-07T07:29:20.760Z,2824
2017-07-07T07:30:36.428Z,2732
2017-07-07T07:31:50.725Z,2696
2017-07-07T07:33:06.367Z,2736
2017-07-07T07:34:20.543Z,2816
2017-07-07T07:35:34.972Z,3008
2017-07-07T07:36:47.813Z,3272
2017-07-07T07:38:03.273Z,3616
2017-07-07T07:39:18.747Z,4276
2017-07-07T07:40:34.076Z,5512
2017-07-07T07:41:49.554Z,6800
2017-07-07T07:43:04.967Z,7596
2017-07-07T07:44:20.425Z,8360
2017-07-07T07:45:34.677Z,9764
2017-07-07T07:46:48.867Z,10696
2017-07-07T07:48:04.285Z,11180
2017-07-07T07:49:19.748Z,12128
2017-07-07T07:50:34.147Z,12140
2017-07-07T07:51:49.740Z,11528
2017-07-07T07:53:05.430Z,10656
2017-07-07T07:54:20.864Z,9684
2017-07-07T07:55:36.561Z,9736
2017-07-07T07:56:52.036Z,10076
2017-07-07T07:58:07.421Z,11132
2017-07-07T07:59:21.549Z,11516
2017-07-07T08:00:37.334Z,11888
2017-07-07T08:01:52.794Z,11912
2017-07-07T08:03:08.283Z,12408
2017-07-07T08:04:22.563Z,12952
2017-07-07T08:05:38.288Z,13248
2017-07-07T08:06:53.758Z,14352
2017-07-07T08:08:07.881Z,15348
2017-07-07T08:09:22.234Z,16064
2017-07-07T08:10:37.939Z,16832
2017-07-07T08:11:53.604Z,17888
2017-07-07T08:13:09.058Z,18688
2017-07-07T08:14:24.487Z,19264
2017-07-07T08:15:40.163Z,19520
2017-07-07T08:16:54.439Z,19424
2017-07-07T08:18:09.846Z,18400
2017-07-07T08:19:25.430Z,16832
2017-07-07T08:20:41.249Z,16096
2017-07-07T08:21:56.754Z,15968
2017-07-07T08:23:12.219Z,15936
2017-07-07T08:24:27.689Z,16032
2017-07-07T08:25:43.416Z,16448
2017-07-07T08:26:58.839Z,16960
2017-07-07T08:28:12.989Z,17312
2017-07-07T08:29:28.666Z,16768
2017-07-07T08:30:44.375Z,16064
2017-07-07T08:31:59.861Z,15776
2017-07-07T08:33:15.298Z,15904
2017-07-07T08:34:30.640Z,14716
2017-07-07T08:35:45.283Z,12344
2017-07-07T08:36:59.456Z,10272
2017-07-07T08:38:14.927Z,9356
2017-07-07T08:39:30.381Z,9072
2017-07-07T08:40:46.174Z,9048
2017-07-07T08:42:01.652Z,9280
2017-07-07T08:43:17.089Z,9664
2017-07-07T08:45:03.522Z,11372
2017-07-07T08:46:19.231Z,11560
2017-07-07T08:47:34.693Z,11028
2017-07-07T08:48:50.230Z,12324
2017-07-07T08:50:05.703Z,12092
2017-07-07T08:51:21.430Z,14192
2017-07-07T08:52:36.912Z,15840
2017-07-07T08:53:50.973Z,20256
2017-07-07T08:55:06.497Z,20320
2017-07-07T08:56:22.175Z,42560
2017-07-07T08:57:37.775Z,21088
2017-07-07T08:58:53.379Z,24448
2017-07-07T09:00:08.771Z,20960
2017-07-07T09:01:24.513Z,43392
2017-07-07T09:02:40.130Z,23808
2017-07-07T09:03:55.613Z,38528
2017-07-07T09:05:09.744Z,84992
2017-07-07T09:06:25.462Z,104800
2017-07-07T09:07:39.589Z,92576
2017-07-07T09:08:55.258Z,85536
2017-07-07T09:10:10.795Z,97440
2017-07-07T09:11:26.553Z,116576
2017-07-07T09:12:42.002Z,125024
2017-07-07T09:13:57.480Z,122880
2017-07-07T09:15:13.039Z,111328
2017-07-07T09:16:28.557Z,51776
2017-07-07T09:17:44.068Z,35296
2017-07-07T09:18:59.471Z,68448
2017-07-07T09:20:13.547Z,41952
2017-07-07T09:21:29.269Z,27328
2017-07-07T09:22:44.742Z,62336
2017-07-07T09:24:00.142Z,27744
2017-07-07T09:25:15.646Z,80128
2017-07-07T09:26:31.478Z,26784
2017-07-07T09:27:47.032Z,38016
2017-07-07T09:29:02.487Z,22944
2017-07-07T09:30:18.261Z,23040
2017-07-07T09:31:34.005Z,20416
2017-07-07T09:32:49.449Z,36864
2017-07-07T09:34:04.859Z,19392
2017-07-07T09:35:20.317Z,21024
2017-07-07T09:36:36.000Z,28160
2017-07-07T09:37:50.163Z,28736
2017-07-07T09:39:05.616Z,113664
2017-07-07T09:40:21.037Z,29024
2017-07-07T09:41:36.725Z,24608
2017-07-07T09:42:52.154Z,27840
2017-07-07T09:44:07.678Z,30560
2017-07-07T09:45:23.137Z,25408
2017-07-07T09:46:38.833Z,26560
2017-07-07T09:47:54.520Z,34112
2017-07-07T09:49:09.998Z,26432
2017-07-07T09:50:25.448Z,42336
2017-07-07T09:51:41.152Z,22976
2017-07-07T09:52:56.606Z,23072
2017-07-07T09:54:10.794Z,24192
2017-07-07T09:55:24.915Z,19968
2017-07-07T09:57:11.461Z,25728
2017-07-07T09:58:26.925Z,28416
2017-07-07T09:59:42.569Z,57888
2017-07-07T10:00:58.068Z,55488
2017-07-07T10:02:13.797Z,108864
2017-07-07T10:03:29.357Z,69824
2017-07-07T10:04:43.474Z,108800
2017-07-07T10:05:57.467Z,103904
2017-07-07T10:07:11.884Z,101120
2017-07-07T10:08:27.372Z,104640
2017-07-07T10:09:42.905Z,104704
2017-07-07T10:10:58.363Z,91552
2017-07-07T10:12:14.113Z,102592
2017-07-07T10:13:29.206Z,133088
2017-07-07T10:14:44.669Z,134304
2017-07-07T10:15:58.918Z,113696
2017-07-07T10:17:14.640Z,115168
2017-07-07T10:18:30.051Z,120000
2017-07-07T10:19:45.563Z,112352
2017-07-07T10:21:01.050Z,112896
2017-07-07T10:22:16.755Z,126464
2017-07-07T10:23:32.245Z,110400
2017-07-07T10:24:47.667Z,35968
2017-07-07T10:26:03.180Z,94528
2017-07-07T10:27:18.912Z,94592
2017-07-07T10:28:34.458Z,55104
2017-07-07T10:29:49.932Z,137184
2017-07-07T10:31:05.372Z,148832
2017-07-07T10:32:21.006Z,140640
2017-07-07T10:33:36.480Z,120160
2017-07-07T10:34:52.036Z,99232
2017-07-07T10:36:07.465Z,43104
2017-07-07T10:37:21.846Z,134912
2017-07-07T10:38:37.505Z,146432
2017-07-07T10:39:52.974Z,123616
2017-07-07T10:41:08.656Z,112992
2017-07-07T10:42:24.432Z,122016
2017-07-07T10:43:39.944Z,100256
2017-07-07T10:44:55.414Z,82720
2017-07-07T10:46:11.055Z,78976
2017-07-07T10:47:26.749Z,86208
2017-07-07T10:48:40.944Z,112000
2017-07-07T10:49:56.427Z,125280
2017-07-07T10:51:11.905Z,113440
2017-07-07T10:52:27.807Z,107392
2017-07-07T10:53:43.242Z,129696
2017-07-07T10:54:58.666Z,145664
2017-07-07T10:56:14.154Z,138912
2017-07-07T10:57:29.831Z,149568
2017-07-07T10:58:45.334Z,164928
2017-07-07T11:00:00.799Z,142624
2017-07-07T11:01:16.263Z,27200
2017-07-07T11:02:30.724Z,39904
2017-07-07T11:03:46.212Z,86816
2017-07-07T11:05:01.745Z,134720
2017-07-07T11:06:17.451Z,133824
2017-07-07T11:07:33.189Z,111200
2017-07-07T11:08:48.662Z,111968
2017-07-07T11:10:17.885Z,120736
2017-07-07T11:11:33.569Z,100608
2017-07-07T11:12:49.244Z,95648
2017-07-07T11:14:04.742Z,121792
2017-07-07T11:15:20.271Z,121056
2017-07-07T11:16:35.772Z,100832
2017-07-07T11:17:51.511Z,82560
2017-07-07T11:19:07.008Z,150144
2017-07-07T11:20:22.472Z,144352
2017-07-07T11:21:37.966Z,83328
2017-07-07T11:22:53.370Z,95456
2017-07-07T11:24:09.039Z,137568
2017-07-07T11:25:24.529Z,157600
2017-07-07T11:26:40.166Z,126016
2017-07-07T11:27:55.904Z,125472
2017-07-07T11:29:11.324Z,158592
2017-07-07T11:30:26.762Z,156032
2017-07-07T11:32:13.088Z,113120
2017-07-07T11:33:28.854Z,109728
2017-07-07T11:34:44.340Z,128896
2017-07-07T11:35:59.857Z,131968
2017-07-07T11:37:15.316Z,85376
2017-07-07T11:38:31.132Z,76224
2017-07-07T11:39:46.595Z,110336
2017-07-07T11:41:02.103Z,120896
2017-07-07T11:42:17.611Z,95712
2017-07-07T11:43:33.309Z,99968
2017-07-07T11:44:49.000Z,124416
2017-07-07T11:46:04.465Z,111328
2017-07-07T11:47:20.145Z,79904
2017-07-07T11:48:34.582Z,87616
2017-07-07T11:49:50.142Z,116576
2017-07-07T11:51:04.427Z,122080
2017-07-07T11:52:19.884Z,104224
2017-07-07T11:53:35.635Z,109856
2017-07-07T11:54:51.110Z,139456
2017-07-07T11:56:05.131Z,138592
2017-07-07T11:57:20.573Z,95616
2017-07-07T11:58:36.251Z,75936
2017-07-07T11:59:51.731Z,102240
2017-07-07T12:01:07.149Z,121344
2017-07-07T12:02:21.321Z,112928
2017-07-07T12:03:37.087Z,110208
2017-07-07T12:06:21.688Z,106080
2017-07-07T12:07:37.161Z,103520
2017-07-07T12:08:53.027Z,117184
2017-07-07T12:10:08.557Z,110688
2017-07-07T12:11:24.062Z,89056
2017-07-07T12:12:39.175Z,93984
2017-07-07T12:13:54.862Z,98016
2017-07-07T12:15:10.701Z,135200
2017-07-07T12:16:26.175Z,108544
2017-07-07T12:17:41.697Z,40256
2017-07-07T12:18:57.444Z,22784
2017-07-07T12:20:13.158Z,22752
2017-07-07T12:21:28.664Z,23232
2017-07-07T12:22:44.338Z,28992
2017-07-07T12:24:00.155Z,43552
2017-07-07T12:25:15.618Z,120640
2017-07-07T12:26:31.241Z,127488
2017-07-07T12:27:46.728Z,120608
2017-07-07T12:29:02.489Z,113696
2017-07-07T12:30:16.885Z,92416
2017-07-07T12:31:30.794Z,38944
2017-07-07T12:32:45.919Z,66016
2017-07-07T12:34:01.610Z,37696
2017-07-07T12:35:47.991Z,56384
2017-07-07T12:37:03.470Z,47360
2017-07-07T12:38:17.630Z,42240
2017-07-07T12:39:33.324Z,53472
2017-07-07T12:40:48.834Z,38752
2017-07-07T12:42:04.271Z,38336
2017-07-07T12:43:18.419Z,35968
2017-07-07T12:44:34.161Z,35456
2017-07-07T12:46:03.210Z,33600
2017-07-07T12:47:18.909Z,37376
2017-07-07T12:48:34.386Z,39616
2017-07-07T12:49:50.113Z,31296
2017-07-07T12:51:05.606Z,30144
2017-07-07T12:52:21.108Z,27168
2017-07-07T12:53:36.585Z,25856
2017-07-07T12:54:52.338Z,28800
2017-07-07T12:56:07.841Z,53312
2017-07-07T12:57:23.386Z,38560
2017-07-07T12:58:38.852Z,92384
2017-07-07T12:59:54.555Z,75872
2017-07-07T13:01:10.023Z,34816
2017-07-07T13:02:25.496Z,96800
2017-07-07T13:03:54.635Z,78976
2017-07-07T13:05:10.539Z,74976
2017-07-07T13:06:26.033Z,98336
2017-07-07T13:07:41.545Z,116032
2017-07-07T13:08:57.030Z,118976
2017-07-07T13:10:12.806Z,83168
2017-07-07T13:11:28.304Z,77344
2017-07-07T13:12:43.378Z,51456
2017-07-07T13:13:59.078Z,33792
2017-07-07T13:15:14.769Z,40064
2017-07-07T13:16:30.476Z,62944
2017-07-07T13:17:45.898Z,48256
2017-07-07T13:19:00.081Z,53536
2017-07-07T13:20:14.500Z,33216
2017-07-07T13:21:29.945Z,31104
2017-07-07T13:22:45.411Z,29760
2017-07-07T13:24:01.471Z,34240
2017-07-07T13:25:48.062Z,60512
2017-07-07T13:27:03.712Z,40928
2017-07-07T13:28:19.316Z,37216
2017-07-07T13:29:34.793Z,38848
2017-07-07T13:30:49.121Z,36288
2017-07-07T13:32:03.429Z,28512
2017-07-07T13:33:19.031Z,24832
2017-07-07T13:34:34.540Z,23168
2017-07-07T13:35:50.231Z,24160
2017-07-07T13:37:05.747Z,26144
2017-07-07T13:38:21.242Z,27456
2017-07-07T13:40:07.506Z,25984
2017-07-07T13:41:23.189Z,27456
2017-07-07T13:42:38.806Z,25728
2017-07-07T13:43:54.318Z,27328
2017-07-07T13:45:09.975Z,28672
2017-07-07T13:46:25.647Z,31008
2017-07-07T13:47:41.534Z,27168
2017-07-07T13:48:57.037Z,27264
2017-07-07T13:50:12.503Z,39520
2017-07-07T13:51:28.367Z,36320
2017-07-07T13:52:43.768Z,32800
2017-07-07T13:53:59.244Z,32864
2017-07-07T13:55:13.265Z,36832
2017-07-07T13:56:28.991Z,55264
2017-07-07T13:57:44.492Z,45152
2017-07-07T13:58:59.997Z,51872
2017-07-07T14:00:15.651Z,38400
2017-07-07T14:01:31.378Z,35712
2017-07-07T14:02:46.842Z,38016
2017-07-07T14:04:01.003Z,31072
2017-07-07T14:05:15.013Z,28096
2017-07-07T14:06:30.798Z,35552
2017-07-07T14:07:46.311Z,37664
2017-07-07T14:09:01.809Z,33792
2017-07-07T14:10:16.141Z,29824
2017-07-07T14:11:31.906Z,26016
2017-07-07T14:12:47.397Z,32352
2017-07-07T14:14:02.870Z,39616
2017-07-07T14:15:49.188Z,37152
2017-07-07T14:17:03.517Z,22784
2017-07-07T14:18:17.694Z,22496
2017-07-07T14:19:33.126Z,37344
2017-07-07T14:20:48.854Z,51040
2017-07-07T14:22:04.571Z,29760
2017-07-07T14:23:20.027Z,23360
2017-07-07T14:24:35.534Z,20512
2017-07-07T14:25:50.979Z,20480
2017-07-07T14:27:06.723Z,25088
2017-07-07T14:28:22.387Z,22944
2017-07-07T14:29:38.087Z,26976
2017-07-07T14:30:53.617Z,25888
2017-07-07T14:32:09.370Z,23040
2017-07-07T14:33:24.871Z,22336
2017-07-07T14:35:11.191Z,24480
2017-07-07T14:36:26.674Z,22368
2017-07-07T14:37:42.366Z,25344
2017-07-07T14:38:57.835Z,30240
2017-07-07T14:40:13.457Z,30528
2017-07-07T14:41:28.933Z,47072
2017-07-07T14:42:44.291Z,70688
2017-07-07T14:43:59.723Z,68928
2017-07-07T14:45:15.206Z,81760
2017-07-07T14:46:29.366Z,30464
2017-07-07T14:47:45.087Z,18272
2017-07-07T14:49:00.590Z,32096
2017-07-07T14:50:16.123Z,59424
2017-07-07T14:51:31.752Z,87744
2017-07-07T14:52:47.502Z,93056
2017-07-07T14:54:02.971Z,67104
2017-07-07T14:55:18.465Z,63040
2017-07-07T14:56:34.044Z,70848
2017-07-07T14:57:49.783Z,71200
2017-07-07T14:59:05.220Z,56320
2017-07-07T15:00:20.737Z,83104
2017-07-07T15:01:36.421Z,74016
2017-07-07T15:02:52.097Z,42112
2017-07-07T15:04:38.408Z,73664
2017-07-07T15:05:52.401Z,64544
2017-07-07T15:07:08.002Z,48480
2017-07-07T15:08:23.731Z,19648
2017-07-07T15:09:39.278Z,12680
2017-07-07T15:10:54.741Z,11980
2017-07-07T15:12:08.959Z,12880
2017-07-07T15:13:24.615Z,13044
2017-07-07T15:14:40.172Z,11652
2017-07-07T15:15:55.588Z,12444
2017-07-07T15:17:11.005Z,12016
2017-07-07T15:18:27.003Z,11512
2017-07-07T15:19:41.163Z,10896
2017-07-07T15:20:56.615Z,10388
2017-07-07T15:22:09.480Z,10212
2017-07-07T15:23:25.227Z,10176
2017-07-07T15:24:40.761Z,10316
2017-07-07T15:25:56.247Z,10136
2017-07-07T15:27:10.406Z,10200
2017-07-07T15:28:26.202Z,10880
2017-07-07T15:29:41.686Z,10828
2017-07-07T15:30:57.227Z,10360
2017-07-07T15:32:12.684Z,10188
2017-07-07T15:33:28.550Z,9968
2017-07-07T15:34:44.181Z,9936
2017-07-07T15:35:59.702Z,10272
2017-07-07T15:37:15.156Z,10468
2017-07-07T15:38:30.862Z,11376
2017-07-07T15:39:46.291Z,11808
2017-07-07T15:41:01.742Z,11456
2017-07-07T15:42:17.213Z,10296
2017-07-07T15:43:33.000Z,9204
2017-07-07T15:44:47.210Z,9052
2017-07-07T15:46:02.683Z,9408
2017-07-07T15:47:18.189Z,9728
2017-07-07T15:48:34.021Z,10640
2017-07-07T15:49:49.500Z,11440
2017-07-07T15:51:04.984Z,10984
2017-07-07T15:52:20.125Z,10912
2017-07-07T15:53:36.048Z,12956
2017-07-07T15:54:51.553Z,13704
2017-07-07T15:56:06.695Z,12164
2017-07-07T15:57:20.889Z,11548
2017-07-07T15:58:36.614Z,12084
2017-07-07T15:59:52.084Z,12396
2017-07-07T16:01:07.566Z,13008
2017-07-07T16:02:22.981Z,12028
2017-07-07T16:03:38.720Z,13268
2017-07-07T16:06:23.407Z,13816
2017-07-07T16:07:38.863Z,13740
2017-07-07T16:08:54.822Z,13644
2017-07-07T16:10:10.350Z,12068
2017-07-07T16:11:25.832Z,11808
2017-07-07T16:12:38.575Z,9204
2017-07-07T16:13:53.930Z,9328
2017-07-07T16:15:09.434Z,9108
2017-07-07T16:16:24.889Z,8888
2017-07-07T16:17:40.433Z,7936
2017-07-07T16:18:56.171Z,7452
2017-07-07T16:20:11.639Z,6976
2017-07-07T16:21:27.109Z,7104
2017-07-07T16:22:42.787Z,7780
2017-07-07T16:23:58.523Z,8488
2017-07-07T16:25:14.033Z,8676
2017-07-07T16:26:29.545Z,8176
2017-07-07T16:27:45.147Z,7852
2017-07-07T16:29:00.894Z,7768
2017-07-07T16:30:16.376Z,7652
2017-07-07T16:31:31.916Z,7556
2017-07-07T16:32:47.551Z,7444
2017-07-07T16:34:03.758Z,7268
2017-07-07T16:35:19.208Z,7152
2017-07-07T16:36:34.647Z,7072
2017-07-07T16:37:50.397Z,7716
2017-07-07T16:39:06.147Z,7720
2017-07-07T16:40:35.202Z,6800
2017-07-07T16:41:50.696Z,6660
2017-07-07T16:43:06.338Z,6268
2017-07-07T16:44:22.339Z,6496
2017-07-07T16:45:38.167Z,7108
2017-07-07T16:46:53.869Z,7844
2017-07-07T16:48:09.568Z,8008
2017-07-07T16:49:25.308Z,8372
2017-07-07T16:50:40.853Z,8500
2017-07-07T16:51:56.332Z,8856
2017-07-07T16:53:11.772Z,9240
2017-07-07T16:54:27.780Z,9288
2017-07-07T16:55:43.312Z,8796